West Ferrisburgh, Vermont
Current Conditions -  °F | °C
As of 7:15 PM on Thursday 18 Dec 2014 (Local Time) from K6B0 Reporting Station
Overcast Overcast  
Wind Chill: -4°   Ceiling: 2100
Heat Index:   Visibility: 10mi
Dew Point: -3°   Wind: 7mph
Humidity: 80%   Direction: 340°NNW
Pressure: 29.91"   Gusts: NA
Location:  44.0804°N, 73.3324°W
Report Text: K6B0 190015Z AUTO 34006KT 10SM OVC021 00/M03 A2991 RMK AO2 T10021033
Loading
Personal Weather Stations






























Interactive Weather Map New forecast layout! Learn more

10-Day Weather Forecast

Advertisements
Track Severe Weather on mobile